sensor_id;sensor_type;location;lat;lon;timestamp;P1;durP1;ratioP1;P2;durP2;ratioP2
72439;SDS011;60446;50.752;4.352;2023-06-10T00:00:47;13.03;;;6.10;;
72439;SDS011;60446;50.752;4.352;2023-06-10T00:03:14;10.00;;;6.30;;
72439;SDS011;60446;50.752;4.352;2023-06-10T00:05:41;11.00;;;5.88;;
72439;SDS011;60446;50.752;4.352;2023-06-10T00:08:09;12.38;;;6.55;;
72439;SDS011;60446;50.752;4.352;2023-06-10T00:10:37;11.23;;;6.30;;
72439;SDS011;60446;50.752;4.352;2023-06-10T00:13:05;9.93;;;6.30;;
72439;SDS011;60446;50.752;4.352;2023-06-10T00:15:37;13.57;;;5.95;;
72439;SDS011;60446;50.752;4.352;2023-06-10T00:18:05;11.90;;;6.30;;
72439;SDS011;60446;50.752;4.352;2023-06-10T00:20:32;11.20;;;5.82;;
72439;SDS011;60446;50.752;4.352;2023-06-10T00:23:02;12.15;;;6.60;;
72439;SDS011;60446;50.752;4.352;2023-06-10T00:25:29;10.80;;;7.03;;
72439;SDS011;60446;50.752;4.352;2023-06-10T00:27:57;12.40;;;6.47;;
72439;SDS011;60446;50.752;4.352;2023-06-10T00:30:24;12.80;;;6.50;;
72439;SDS011;60446;50.752;4.352;2023-06-10T00:32:51;13.65;;;6.85;;
72439;SDS011;60446;50.752;4.352;2023-06-10T00:35:18;12.60;;;6.38;;
72439;SDS011;60446;50.752;4.352;2023-06-10T00:37:46;14.83;;;7.67;;
72439;SDS011;60446;50.752;4.352;2023-06-10T00:40:14;10.70;;;6.57;;
72439;SDS011;60446;50.752;4.352;2023-06-10T00:42:41;12.63;;;6.97;;
72439;SDS011;60446;50.752;4.352;2023-06-10T00:45:09;13.55;;;7.07;;
72439;SDS011;60446;50.752;4.352;2023-06-10T00:47:37;11.50;;;6.82;;
72439;SDS011;60446;50.752;4.352;2023-06-10T00:50:05;10.73;;;6.60;;
72439;SDS011;60446;50.752;4.352;2023-06-10T00:52:33;11.73;;;6.63;;
72439;SDS011;60446;50.752;4.352;2023-06-10T00:55:02;13.23;;;7.43;;
72439;SDS011;60446;50.752;4.352;2023-06-10T00:57:30;15.18;;;7.05;;
72439;SDS011;60446;50.752;4.352;2023-06-10T00:59:58;12.80;;;7.05;;
72439;SDS011;60446;50.752;4.352;2023-06-10T01:02:26;13.10;;;6.33;;
72439;SDS011;60446;50.752;4.352;2023-06-10T01:04:57;12.75;;;7.32;;
72439;SDS011;60446;50.752;4.352;2023-06-10T01:07:28;11.05;;;6.97;;
72439;SDS011;60446;50.752;4.352;2023-06-10T01:13:17;12.25;;;6.40;;
72439;SDS011;60446;50.752;4.352;2023-06-10T01:15:50;11.40;;;7.07;;
72439;SDS011;60446;50.752;4.352;2023-06-10T01:18:18;12.40;;;7.57;;
72439;SDS011;60446;50.752;4.352;2023-06-10T01:20:46;12.82;;;7.32;;
72439;SDS011;60446;50.752;4.352;2023-06-10T01:23:17;13.05;;;7.00;;
72439;SDS011;60446;50.752;4.352;2023-06-10T01:25:46;12.75;;;7.65;;
72439;SDS011;60446;50.752;4.352;2023-06-10T01:28:22;12.57;;;7.50;;
72439;SDS011;60446;50.752;4.352;2023-06-10T01:31:18;11.48;;;6.57;;
72439;SDS011;60446;50.752;4.352;2023-06-10T01:34:07;13.75;;;6.97;;
72439;SDS011;60446;50.752;4.352;2023-06-10T01:36:39;11.18;;;6.53;;
72439;SDS011;60446;50.752;4.352;2023-06-10T01:39:08;13.45;;;7.30;;
72439;SDS011;60446;50.752;4.352;2023-06-10T01:41:40;12.67;;;7.50;;
72439;SDS011;60446;50.752;4.352;2023-06-10T01:44:09;12.38;;;6.95;;
72439;SDS011;60446;50.752;4.352;2023-06-10T01:46:39;13.13;;;6.93;;
72439;SDS011;60446;50.752;4.352;2023-06-10T01:49:06;12.90;;;7.07;;
72439;SDS011;60446;50.752;4.352;2023-06-10T01:51:33;12.60;;;6.90;;
72439;SDS011;60446;50.752;4.352;2023-06-10T01:54:00;10.67;;;6.33;;
72439;SDS011;60446;50.752;4.352;2023-06-10T01:56:28;10.75;;;7.00;;
72439;SDS011;60446;50.752;4.352;2023-06-10T01:58:55;13.05;;;6.85;;
72439;SDS011;60446;50.752;4.352;2023-06-10T02:01:25;13.48;;;6.65;;
72439;SDS011;60446;50.752;4.352;2023-06-10T02:03:53;12.93;;;7.55;;
72439;SDS011;60446;50.752;4.352;2023-06-10T02:06:20;11.97;;;6.87;;
72439;SDS011;60446;50.752;4.352;2023-06-10T02:08:47;12.52;;;6.78;;
72439;SDS011;60446;50.752;4.352;2023-06-10T02:11:15;15.75;;;6.90;;
72439;SDS011;60446;50.752;4.352;2023-06-10T02:13:42;13.38;;;7.32;;
72439;SDS011;60446;50.752;4.352;2023-06-10T02:16:09;11.65;;;6.97;;
72439;SDS011;60446;50.752;4.352;2023-06-10T02:21:09;11.88;;;7.15;;
72439;SDS011;60446;50.752;4.352;2023-06-10T02:23:37;12.52;;;6.72;;
72439;SDS011;60446;50.752;4.352;2023-06-10T02:26:04;11.90;;;6.57;;
72439;SDS011;60446;50.752;4.352;2023-06-10T02:28:32;13.05;;;7.28;;
72439;SDS011;60446;50.752;4.352;2023-06-10T02:30:59;11.53;;;7.00;;
72439;SDS011;60446;50.752;4.352;2023-06-10T02:33:28;15.07;;;7.75;;
72439;SDS011;60446;50.752;4.352;2023-06-10T02:35:55;13.48;;;7.07;;
72439;SDS011;60446;50.752;4.352;2023-06-10T02:38:24;12.13;;;7.18;;
72439;SDS011;60446;50.752;4.352;2023-06-10T02:40:52;13.75;;;7.20;;
72439;SDS011;60446;50.752;4.352;2023-06-10T02:43:21;13.90;;;7.73;;
72439;SDS011;60446;50.752;4.352;2023-06-10T02:45:50;12.95;;;7.35;;
72439;SDS011;60446;50.752;4.352;2023-06-10T02:48:18;13.32;;;7.35;;
72439;SDS011;60446;50.752;4.352;2023-06-10T02:50:47;13.10;;;7.28;;
72439;SDS011;60446;50.752;4.352;2023-06-10T02:53:23;13.73;;;7.15;;
72439;SDS011;60446;50.752;4.352;2023-06-10T02:55:55;11.67;;;7.20;;
72439;SDS011;60446;50.752;4.352;2023-06-10T02:58:23;13.10;;;6.80;;
72439;SDS011;60446;50.752;4.352;2023-06-10T03:00:50;13.32;;;7.40;;
72439;SDS011;60446;50.752;4.352;2023-06-10T03:03:20;13.43;;;7.13;;
72439;SDS011;60446;50.752;4.352;2023-06-10T03:05:59;12.43;;;6.95;;
72439;SDS011;60446;50.752;4.352;2023-06-10T03:08:26;11.50;;;7.10;;
72439;SDS011;60446;50.752;4.352;2023-06-10T03:10:55;12.60;;;7.10;;
72439;SDS011;60446;50.752;4.352;2023-06-10T03:13:23;14.15;;;7.53;;
72439;SDS011;60446;50.752;4.352;2023-06-10T03:15:50;14.25;;;7.72;;
72439;SDS011;60446;50.752;4.352;2023-06-10T03:18:20;13.10;;;7.30;;
72439;SDS011;60446;50.752;4.352;2023-06-10T03:20:50;17.47;;;7.80;;
72439;SDS011;60446;50.752;4.352;2023-06-10T03:23:19;12.10;;;7.25;;
72439;SDS011;60446;50.752;4.352;2023-06-10T03:25:46;13.90;;;7.43;;
72439;SDS011;60446;50.752;4.352;2023-06-10T03:28:16;13.90;;;7.72;;
72439;SDS011;60446;50.752;4.352;2023-06-10T03:30:44;12.65;;;7.45;;
72439;SDS011;60446;50.752;4.352;2023-06-10T03:33:12;14.40;;;7.87;;
72439;SDS011;60446;50.752;4.352;2023-06-10T03:35:41;11.93;;;7.07;;
72439;SDS011;60446;50.752;4.352;2023-06-10T03:38:08;13.48;;;7.40;;
72439;SDS011;60446;50.752;4.352;2023-06-10T03:40:36;14.23;;;7.47;;
72439;SDS011;60446;50.752;4.352;2023-06-10T03:43:04;13.77;;;7.65;;
72439;SDS011;60446;50.752;4.352;2023-06-10T03:45:31;12.87;;;7.73;;
72439;SDS011;60446;50.752;4.352;2023-06-10T03:47:59;13.38;;;7.32;;
72439;SDS011;60446;50.752;4.352;2023-06-10T03:50:35;14.43;;;7.65;;
72439;SDS011;60446;50.752;4.352;2023-06-10T03:53:03;14.18;;;7.40;;
72439;SDS011;60446;50.752;4.352;2023-06-10T03:55:31;14.80;;;7.65;;
72439;SDS011;60446;50.752;4.352;2023-06-10T03:57:59;14.67;;;7.33;;
72439;SDS011;60446;50.752;4.352;2023-06-10T04:00:26;17.67;;;8.32;;
72439;SDS011;60446;50.752;4.352;2023-06-10T04:02:55;15.52;;;7.30;;
72439;SDS011;60446;50.752;4.352;2023-06-10T04:05:33;14.45;;;7.80;;
72439;SDS011;60446;50.752;4.352;2023-06-10T04:08:00;14.40;;;7.30;;
72439;SDS011;60446;50.752;4.352;2023-06-10T04:10:28;12.57;;;7.33;;
72439;SDS011;60446;50.752;4.352;2023-06-10T04:12:55;14.18;;;7.88;;
72439;SDS011;60446;50.752;4.352;2023-06-10T04:15:25;13.65;;;7.32;;
72439;SDS011;60446;50.752;4.352;2023-06-10T04:17:53;14.45;;;7.80;;
72439;SDS011;60446;50.752;4.352;2023-06-10T04:20:22;14.45;;;7.80;;
72439;SDS011;60446;50.752;4.352;2023-06-10T04:22:49;15.10;;;8.40;;
72439;SDS011;60446;50.752;4.352;2023-06-10T04:25:18;13.73;;;7.10;;
72439;SDS011;60446;50.752;4.352;2023-06-10T04:27:48;14.45;;;8.18;;
72439;SDS011;60446;50.752;4.352;2023-06-10T04:30:16;13.80;;;7.32;;
72439;SDS011;60446;50.752;4.352;2023-06-10T04:32:44;12.93;;;7.65;;
72439;SDS011;60446;50.752;4.352;2023-06-10T04:35:14;13.93;;;8.00;;
72439;SDS011;60446;50.752;4.352;2023-06-10T04:37:43;14.45;;;8.35;;
72439;SDS011;60446;50.752;4.352;2023-06-10T04:40:11;12.65;;;6.70;;
72439;SDS011;60446;50.752;4.352;2023-06-10T04:42:38;12.95;;;7.53;;
72439;SDS011;60446;50.752;4.352;2023-06-10T04:45:06;13.05;;;7.55;;
72439;SDS011;60446;50.752;4.352;2023-06-10T04:47:34;12.60;;;7.37;;
72439;SDS011;60446;50.752;4.352;2023-06-10T04:50:03;15.23;;;7.63;;
72439;SDS011;60446;50.752;4.352;2023-06-10T04:52:31;14.30;;;7.60;;
72439;SDS011;60446;50.752;4.352;2023-06-10T04:55:00;13.27;;;7.75;;
72439;SDS011;60446;50.752;4.352;2023-06-10T04:57:27;12.65;;;7.05;;
72439;SDS011;60446;50.752;4.352;2023-06-10T04:59:54;13.47;;;7.73;;
72439;SDS011;60446;50.752;4.352;2023-06-10T05:02:21;12.63;;;7.60;;
72439;SDS011;60446;50.752;4.352;2023-06-10T05:04:49;13.38;;;7.65;;
72439;SDS011;60446;50.752;4.352;2023-06-10T05:07:16;16.70;;;7.90;;
72439;SDS011;60446;50.752;4.352;2023-06-10T05:09:43;13.75;;;7.53;;
72439;SDS011;60446;50.752;4.352;2023-06-10T05:12:11;11.37;;;7.10;;
72439;SDS011;60446;50.752;4.352;2023-06-10T05:14:38;14.25;;;7.30;;
72439;SDS011;60446;50.752;4.352;2023-06-10T05:17:05;13.13;;;7.30;;
72439;SDS011;60446;50.752;4.352;2023-06-10T05:19:33;13.13;;;7.38;;
72439;SDS011;60446;50.752;4.352;2023-06-10T05:22:02;12.68;;;7.22;;
72439;SDS011;60446;50.752;4.352;2023-06-10T05:24:29;13.77;;;7.97;;
72439;SDS011;60446;50.752;4.352;2023-06-10T05:26:56;12.15;;;7.38;;
72439;SDS011;60446;50.752;4.352;2023-06-10T05:29:23;11.85;;;7.03;;
72439;SDS011;60446;50.752;4.352;2023-06-10T05:31:51;13.75;;;7.85;;
72439;SDS011;60446;50.752;4.352;2023-06-10T05:34:18;13.93;;;7.95;;
72439;SDS011;60446;50.752;4.352;2023-06-10T05:36:45;13.13;;;7.77;;
72439;SDS011;60446;50.752;4.352;2023-06-10T05:39:12;12.98;;;7.72;;
72439;SDS011;60446;50.752;4.352;2023-06-10T05:41:39;12.27;;;7.13;;
72439;SDS011;60446;50.752;4.352;2023-06-10T05:44:07;13.48;;;7.97;;
72439;SDS011;60446;50.752;4.352;2023-06-10T05:46:35;11.77;;;7.00;;
72439;SDS011;60446;50.752;4.352;2023-06-10T05:49:02;13.93;;;7.87;;
72439;SDS011;60446;50.752;4.352;2023-06-10T05:51:30;13.73;;;7.45;;
72439;SDS011;60446;50.752;4.352;2023-06-10T05:53:57;12.80;;;7.75;;
72439;SDS011;60446;50.752;4.352;2023-06-10T05:56:24;13.23;;;7.68;;
72439;SDS011;60446;50.752;4.352;2023-06-10T05:58:52;13.40;;;7.55;;
72439;SDS011;60446;50.752;4.352;2023-06-10T06:01:19;13.13;;;7.43;;
72439;SDS011;60446;50.752;4.352;2023-06-10T06:03:46;13.00;;;7.72;;
72439;SDS011;60446;50.752;4.352;2023-06-10T06:06:14;12.90;;;7.28;;
72439;SDS011;60446;50.752;4.352;2023-06-10T06:08:41;12.32;;;7.55;;
72439;SDS011;60446;50.752;4.352;2023-06-10T06:11:08;12.75;;;7.57;;
72439;SDS011;60446;50.752;4.352;2023-06-10T06:13:35;15.23;;;8.03;;
72439;SDS011;60446;50.752;4.352;2023-06-10T06:16:02;14.73;;;8.15;;
72439;SDS011;60446;50.752;4.352;2023-06-10T06:18:30;12.88;;;6.80;;
72439;SDS011;60446;50.752;4.352;2023-06-10T06:20:57;13.25;;;7.18;;
72439;SDS011;60446;50.752;4.352;2023-06-10T06:23:24;12.70;;;8.05;;
72439;SDS011;60446;50.752;4.352;2023-06-10T06:25:51;14.37;;;8.20;;
72439;SDS011;60446;50.752;4.352;2023-06-10T06:28:18;13.65;;;7.63;;
72439;SDS011;60446;50.752;4.352;2023-06-10T06:30:47;13.20;;;7.70;;
72439;SDS011;60446;50.752;4.352;2023-06-10T06:33:14;13.50;;;7.80;;
72439;SDS011;60446;50.752;4.352;2023-06-10T06:35:42;13.68;;;7.88;;
72439;SDS011;60446;50.752;4.352;2023-06-10T06:38:09;13.67;;;8.17;;
72439;SDS011;60446;50.752;4.352;2023-06-10T06:40:36;14.35;;;8.07;;
72439;SDS011;60446;50.752;4.352;2023-06-10T06:43:03;13.30;;;7.72;;
72439;SDS011;60446;50.752;4.352;2023-06-10T06:45:44;13.27;;;8.57;;
72439;SDS011;60446;50.752;4.352;2023-06-10T06:48:12;13.68;;;8.20;;
72439;SDS011;60446;50.752;4.352;2023-06-10T06:50:40;11.33;;;7.30;;
72439;SDS011;60446;50.752;4.352;2023-06-10T06:53:08;12.60;;;7.90;;
72439;SDS011;60446;50.752;4.352;2023-06-10T06:55:35;12.02;;;7.55;;
72439;SDS011;60446;50.752;4.352;2023-06-10T06:58:02;12.43;;;7.03;;
72439;SDS011;60446;50.752;4.352;2023-06-10T07:00:33;12.25;;;7.07;;
72439;SDS011;60446;50.752;4.352;2023-06-10T07:03:00;12.23;;;7.43;;
72439;SDS011;60446;50.752;4.352;2023-06-10T07:05:27;14.23;;;7.63;;
72439;SDS011;60446;50.752;4.352;2023-06-10T07:07:54;11.73;;;7.30;;
72439;SDS011;60446;50.752;4.352;2023-06-10T07:10:25;11.50;;;6.95;;
72439;SDS011;60446;50.752;4.352;2023-06-10T07:12:53;12.77;;;7.07;;
72439;SDS011;60446;50.752;4.352;2023-06-10T07:15:21;12.80;;;6.73;;
72439;SDS011;60446;50.752;4.352;2023-06-10T07:17:48;12.63;;;6.60;;
72439;SDS011;60446;50.752;4.352;2023-06-10T07:20:16;11.60;;;6.82;;
72439;SDS011;60446;50.752;4.352;2023-06-10T07:22:44;11.07;;;6.65;;
72439;SDS011;60446;50.752;4.352;2023-06-10T07:25:11;11.65;;;6.82;;
72439;SDS011;60446;50.752;4.352;2023-06-10T07:27:38;13.03;;;6.63;;
72439;SDS011;60446;50.752;4.352;2023-06-10T07:30:06;13.25;;;6.68;;
72439;SDS011;60446;50.752;4.352;2023-06-10T07:32:34;11.82;;;6.38;;
72439;SDS011;60446;50.752;4.352;2023-06-10T07:35:02;10.30;;;6.38;;
72439;SDS011;60446;50.752;4.352;2023-06-10T07:37:29;13.20;;;7.07;;
72439;SDS011;60446;50.752;4.352;2023-06-10T07:39:56;11.30;;;7.00;;
72439;SDS011;60446;50.752;4.352;2023-06-10T07:42:24;12.32;;;6.53;;
72439;SDS011;60446;50.752;4.352;2023-06-10T07:44:51;13.75;;;6.72;;
72439;SDS011;60446;50.752;4.352;2023-06-10T07:47:18;11.65;;;6.70;;
72439;SDS011;60446;50.752;4.352;2023-06-10T07:49:45;12.98;;;7.10;;
72439;SDS011;60446;50.752;4.352;2023-06-10T07:52:13;11.53;;;6.80;;
72439;SDS011;60446;50.752;4.352;2023-06-10T07:54:40;11.07;;;6.90;;
72439;SDS011;60446;50.752;4.352;2023-06-10T07:57:07;11.43;;;7.10;;
72439;SDS011;60446;50.752;4.352;2023-06-10T07:59:34;11.70;;;6.45;;
72439;SDS011;60446;50.752;4.352;2023-06-10T08:02:02;10.63;;;6.88;;
72439;SDS011;60446;50.752;4.352;2023-06-10T08:04:29;10.60;;;6.50;;
72439;SDS011;60446;50.752;4.352;2023-06-10T08:06:57;11.85;;;6.72;;
72439;SDS011;60446;50.752;4.352;2023-06-10T08:09:24;9.98;;;6.03;;
72439;SDS011;60446;50.752;4.352;2023-06-10T08:11:54;10.38;;;7.43;;
72439;SDS011;60446;50.752;4.352;2023-06-10T08:14:22;11.27;;;6.65;;
72439;SDS011;60446;50.752;4.352;2023-06-10T08:16:49;10.47;;;6.97;;
72439;SDS011;60446;50.752;4.352;2023-06-10T08:19:16;13.48;;;6.63;;
72439;SDS011;60446;50.752;4.352;2023-06-10T08:21:44;11.65;;;6.97;;
72439;SDS011;60446;50.752;4.352;2023-06-10T08:24:11;10.40;;;6.15;;
72439;SDS011;60446;50.752;4.352;2023-06-10T08:26:38;10.63;;;6.55;;
72439;SDS011;60446;50.752;4.352;2023-06-10T08:29:05;10.47;;;6.47;;
72439;SDS011;60446;50.752;4.352;2023-06-10T08:31:33;11.25;;;6.47;;
72439;SDS011;60446;50.752;4.352;2023-06-10T08:34:00;11.25;;;6.53;;
72439;SDS011;60446;50.752;4.352;2023-06-10T08:36:27;12.25;;;7.07;;
72439;SDS011;60446;50.752;4.352;2023-06-10T08:38:54;12.55;;;7.00;;
72439;SDS011;60446;50.752;4.352;2023-06-10T08:41:21;13.00;;;7.60;;
72439;SDS011;60446;50.752;4.352;2023-06-10T08:43:57;10.25;;;6.93;;
72439;SDS011;60446;50.752;4.352;2023-06-10T08:46:51;12.27;;;6.80;;
72439;SDS011;60446;50.752;4.352;2023-06-10T08:49:19;12.77;;;6.43;;
72439;SDS011;60446;50.752;4.352;2023-06-10T08:51:54;10.82;;;6.55;;
72439;SDS011;60446;50.752;4.352;2023-06-10T08:54:30;11.27;;;6.40;;
72439;SDS011;60446;50.752;4.352;2023-06-10T08:57:02;11.85;;;7.32;;
72439;SDS011;60446;50.752;4.352;2023-06-10T08:59:35;9.82;;;6.32;;
72439;SDS011;60446;50.752;4.352;2023-06-10T09:02:03;11.25;;;6.50;;
72439;SDS011;60446;50.752;4.352;2023-06-10T09:04:31;12.35;;;6.80;;
72439;SDS011;60446;50.752;4.352;2023-06-10T09:06:59;12.23;;;7.33;;
72439;SDS011;60446;50.752;4.352;2023-06-10T09:09:28;11.73;;;7.15;;
72439;SDS011;60446;50.752;4.352;2023-06-10T09:11:59;10.93;;;7.03;;
72439;SDS011;60446;50.752;4.352;2023-06-10T09:14:26;11.98;;;6.88;;
72439;SDS011;60446;50.752;4.352;2023-06-10T09:16:53;10.82;;;6.85;;
72439;SDS011;60446;50.752;4.352;2023-06-10T09:19:27;9.33;;;6.50;;
72439;SDS011;60446;50.752;4.352;2023-06-10T09:21:55;10.95;;;6.72;;
72439;SDS011;60446;50.752;4.352;2023-06-10T09:24:23;10.55;;;6.72;;
72439;SDS011;60446;50.752;4.352;2023-06-10T09:27:05;10.57;;;6.75;;
72439;SDS011;60446;50.752;4.352;2023-06-10T09:29:54;11.93;;;6.32;;
72439;SDS011;60446;50.752;4.352;2023-06-10T09:32:22;10.33;;;6.57;;
72439;SDS011;60446;50.752;4.352;2023-06-10T09:34:49;10.45;;;6.80;;
72439;SDS011;60446;50.752;4.352;2023-06-10T09:37:20;10.55;;;6.25;;
72439;SDS011;60446;50.752;4.352;2023-06-10T09:40:01;10.20;;;6.55;;
72439;SDS011;60446;50.752;4.352;2023-06-10T09:42:37;10.25;;;6.72;;
72439;SDS011;60446;50.752;4.352;2023-06-10T09:45:06;9.47;;;6.00;;
72439;SDS011;60446;50.752;4.352;2023-06-10T09:47:34;11.55;;;5.95;;
72439;SDS011;60446;50.752;4.352;2023-06-10T09:50:01;9.55;;;5.93;;
72439;SDS011;60446;50.752;4.352;2023-06-10T09:52:30;10.00;;;6.50;;
72439;SDS011;60446;50.752;4.352;2023-06-10T09:55:00;10.18;;;5.97;;
72439;SDS011;60446;50.752;4.352;2023-06-10T09:57:32;8.97;;;5.70;;
72439;SDS011;60446;50.752;4.352;2023-06-10T10:00:03;9.65;;;5.95;;
72439;SDS011;60446;50.752;4.352;2023-06-10T10:02:58;9.98;;;5.80;;
72439;SDS011;60446;50.752;4.352;2023-06-10T10:05:24;11.93;;;5.95;;
72439;SDS011;60446;50.752;4.352;2023-06-10T10:07:52;10.18;;;6.00;;
72439;SDS011;60446;50.752;4.352;2023-06-10T10:10:20;9.50;;;6.27;;
72439;SDS011;60446;50.752;4.352;2023-06-10T10:12:48;10.30;;;6.05;;
72439;SDS011;60446;50.752;4.352;2023-06-10T10:15:23;10.40;;;6.03;;
72439;SDS011;60446;50.752;4.352;2023-06-10T10:17:58;11.80;;;5.95;;
72439;SDS011;60446;50.752;4.352;2023-06-10T10:20:34;10.40;;;6.05;;
72439;SDS011;60446;50.752;4.352;2023-06-10T10:23:13;10.93;;;6.37;;
72439;SDS011;60446;50.752;4.352;2023-06-10T10:25:49;10.27;;;6.30;;
72439;SDS011;60446;50.752;4.352;2023-06-10T10:28:22;9.55;;;5.70;;
72439;SDS011;60446;50.752;4.352;2023-06-10T10:30:54;8.40;;;5.53;;
72439;SDS011;60446;50.752;4.352;2023-06-10T10:33:33;10.95;;;6.00;;
72439;SDS011;60446;50.752;4.352;2023-06-10T10:36:12;10.83;;;5.90;;
72439;SDS011;60446;50.752;4.352;2023-06-10T10:38:41;8.63;;;5.65;;
72439;SDS011;60446;50.752;4.352;2023-06-10T10:41:09;10.13;;;5.28;;
72439;SDS011;60446;50.752;4.352;2023-06-10T10:43:37;9.02;;;6.03;;
72439;SDS011;60446;50.752;4.352;2023-06-10T10:46:08;8.70;;;5.60;;
72439;SDS011;60446;50.752;4.352;2023-06-10T10:48:40;9.27;;;6.23;;
72439;SDS011;60446;50.752;4.352;2023-06-10T10:51:08;9.05;;;5.82;;
72439;SDS011;60446;50.752;4.352;2023-06-10T10:53:37;10.18;;;6.10;;
72439;SDS011;60446;50.752;4.352;2023-06-10T11:01:41;9.43;;;5.90;;
72439;SDS011;60446;50.752;4.352;2023-06-10T11:04:13;10.60;;;6.03;;
72439;SDS011;60446;50.752;4.352;2023-06-10T11:07:05;9.27;;;6.00;;
72439;SDS011;60446;50.752;4.352;2023-06-10T11:09:33;9.73;;;5.78;;
72439;SDS011;60446;50.752;4.352;2023-06-10T11:12:00;9.52;;;6.40;;
72439;SDS011;60446;50.752;4.352;2023-06-10T11:14:28;11.73;;;6.70;;
72439;SDS011;60446;50.752;4.352;2023-06-10T11:16:57;9.68;;;6.63;;
72439;SDS011;60446;50.752;4.352;2023-06-10T11:19:32;11.65;;;6.60;;
72439;SDS011;60446;50.752;4.352;2023-06-10T11:22:07;9.43;;;5.90;;
72439;SDS011;60446;50.752;4.352;2023-06-10T11:24:36;12.45;;;6.30;;
72439;SDS011;60446;50.752;4.352;2023-06-10T11:32:30;10.05;;;6.45;;
72439;SDS011;60446;50.752;4.352;2023-06-10T11:35:00;9.43;;;6.82;;
72439;SDS011;60446;50.752;4.352;2023-06-10T11:37:30;11.57;;;6.22;;
72439;SDS011;60446;50.752;4.352;2023-06-10T11:39:58;10.60;;;6.53;;
72439;SDS011;60446;50.752;4.352;2023-06-10T11:42:25;9.63;;;6.10;;
72439;SDS011;60446;50.752;4.352;2023-06-10T11:44:53;13.25;;;6.38;;
72439;SDS011;60446;50.752;4.352;2023-06-10T11:47:21;10.25;;;6.40;;
72439;SDS011;60446;50.752;4.352;2023-06-10T11:49:58;11.52;;;5.68;;
72439;SDS011;60446;50.752;4.352;2023-06-10T11:52:26;10.73;;;5.70;;
72439;SDS011;60446;50.752;4.352;2023-06-10T11:54:58;9.32;;;5.80;;
72439;SDS011;60446;50.752;4.352;2023-06-10T11:57:27;9.43;;;5.57;;
72439;SDS011;60446;50.752;4.352;2023-06-10T11:59:54;9.45;;;6.28;;
72439;SDS011;60446;50.752;4.352;2023-06-10T12:02:21;11.93;;;6.63;;
72439;SDS011;60446;50.752;4.352;2023-06-10T12:04:49;9.30;;;6.20;;
72439;SDS011;60446;50.752;4.352;2023-06-10T12:07:17;10.25;;;6.15;;
72439;SDS011;60446;50.752;4.352;2023-06-10T12:09:58;10.60;;;6.68;;
72439;SDS011;60446;50.752;4.352;2023-06-10T12:12:44;10.52;;;5.97;;
72439;SDS011;60446;50.752;4.352;2023-06-10T12:15:11;9.38;;;6.82;;
72439;SDS011;60446;50.752;4.352;2023-06-10T12:17:52;10.70;;;6.17;;
72439;SDS011;60446;50.752;4.352;2023-06-10T12:20:29;9.57;;;6.88;;
72439;SDS011;60446;50.752;4.352;2023-06-10T12:23:00;9.60;;;6.13;;
72439;SDS011;60446;50.752;4.352;2023-06-10T12:25:35;10.60;;;6.88;;
72439;SDS011;60446;50.752;4.352;2023-06-10T12:28:09;10.07;;;6.72;;
72439;SDS011;60446;50.752;4.352;2023-06-10T12:30:37;9.53;;;6.80;;
72439;SDS011;60446;50.752;4.352;2023-06-10T12:33:05;10.43;;;6.85;;
72439;SDS011;60446;50.752;4.352;2023-06-10T12:35:52;9.85;;;6.60;;
72439;SDS011;60446;50.752;4.352;2023-06-10T12:38:23;10.82;;;6.63;;
72439;SDS011;60446;50.752;4.352;2023-06-10T12:40:53;10.77;;;6.82;;
72439;SDS011;60446;50.752;4.352;2023-06-10T12:43:23;10.23;;;6.67;;
72439;SDS011;60446;50.752;4.352;2023-06-10T12:45:50;10.63;;;6.88;;
72439;SDS011;60446;50.752;4.352;2023-06-10T12:50:54;10.57;;;7.05;;
72439;SDS011;60446;50.752;4.352;2023-06-10T12:53:25;10.52;;;6.82;;
72439;SDS011;60446;50.752;4.352;2023-06-10T12:55:53;10.53;;;7.17;;
72439;SDS011;60446;50.752;4.352;2023-06-10T12:58:20;11.43;;;7.18;;
72439;SDS011;60446;50.752;4.352;2023-06-10T13:00:49;9.75;;;6.45;;
72439;SDS011;60446;50.752;4.352;2023-06-10T13:03:19;10.52;;;7.07;;
72439;SDS011;60446;50.752;4.352;2023-06-10T13:05:47;10.57;;;7.45;;
72439;SDS011;60446;50.752;4.352;2023-06-10T13:08:14;11.70;;;7.07;;
72439;SDS011;60446;50.752;4.352;2023-06-10T13:10:42;11.40;;;7.20;;
72439;SDS011;60446;50.752;4.352;2023-06-10T13:13:09;10.38;;;7.28;;
72439;SDS011;60446;50.752;4.352;2023-06-10T13:15:36;10.35;;;7.22;;
72439;SDS011;60446;50.752;4.352;2023-06-10T13:18:09;10.38;;;6.55;;
72439;SDS011;60446;50.752;4.352;2023-06-10T13:20:37;9.70;;;6.93;;
72439;SDS011;60446;50.752;4.352;2023-06-10T13:23:04;10.95;;;7.63;;
72439;SDS011;60446;50.752;4.352;2023-06-10T13:25:32;11.20;;;6.63;;
72439;SDS011;60446;50.752;4.352;2023-06-10T13:27:59;10.68;;;7.43;;
72439;SDS011;60446;50.752;4.352;2023-06-10T13:30:26;10.25;;;7.28;;
72439;SDS011;60446;50.752;4.352;2023-06-10T13:32:54;10.80;;;7.47;;
72439;SDS011;60446;50.752;4.352;2023-06-10T13:35:21;11.48;;;6.72;;
72439;SDS011;60446;50.752;4.352;2023-06-10T13:37:48;9.65;;;6.32;;
72439;SDS011;60446;50.752;4.352;2023-06-10T13:40:16;10.25;;;7.07;;
72439;SDS011;60446;50.752;4.352;2023-06-10T13:42:46;11.60;;;7.40;;
72439;SDS011;60446;50.752;4.352;2023-06-10T13:45:17;10.47;;;6.60;;
72439;SDS011;60446;50.752;4.352;2023-06-10T13:47:44;9.90;;;7.00;;
72439;SDS011;60446;50.752;4.352;2023-06-10T13:50:12;10.70;;;6.70;;
72439;SDS011;60446;50.752;4.352;2023-06-10T13:52:40;11.60;;;6.78;;
72439;SDS011;60446;50.752;4.352;2023-06-10T13:55:07;10.02;;;6.60;;
72439;SDS011;60446;50.752;4.352;2023-06-10T13:57:36;9.37;;;6.40;;
72439;SDS011;60446;50.752;4.352;2023-06-10T14:00:04;10.70;;;6.78;;
72439;SDS011;60446;50.752;4.352;2023-06-10T14:02:33;9.88;;;6.63;;
72439;SDS011;60446;50.752;4.352;2023-06-10T14:05:01;10.70;;;6.82;;
72439;SDS011;60446;50.752;4.352;2023-06-10T14:07:28;10.63;;;6.68;;
72439;SDS011;60446;50.752;4.352;2023-06-10T14:09:59;11.17;;;6.77;;
72439;SDS011;60446;50.752;4.352;2023-06-10T14:12:29;8.55;;;6.47;;
72439;SDS011;60446;50.752;4.352;2023-06-10T14:14:57;9.77;;;6.93;;
72439;SDS011;60446;50.752;4.352;2023-06-10T14:17:24;10.75;;;7.25;;
72439;SDS011;60446;50.752;4.352;2023-06-10T14:19:52;10.13;;;6.43;;
72439;SDS011;60446;50.752;4.352;2023-06-10T14:22:19;9.70;;;7.20;;
72439;SDS011;60446;50.752;4.352;2023-06-10T14:24:48;9.63;;;6.78;;
72439;SDS011;60446;50.752;4.352;2023-06-10T14:27:16;10.82;;;6.57;;
72439;SDS011;60446;50.752;4.352;2023-06-10T14:29:43;9.25;;;6.18;;
72439;SDS011;60446;50.752;4.352;2023-06-10T14:32:11;11.93;;;7.13;;
72439;SDS011;60446;50.752;4.352;2023-06-10T14:34:39;10.77;;;7.30;;
72439;SDS011;60446;50.752;4.352;2023-06-10T14:37:08;9.90;;;6.93;;
72439;SDS011;60446;50.752;4.352;2023-06-10T14:39:35;10.88;;;6.55;;
72439;SDS011;60446;50.752;4.352;2023-06-10T14:42:03;11.07;;;7.63;;
72439;SDS011;60446;50.752;4.352;2023-06-10T14:44:31;10.65;;;7.30;;
72439;SDS011;60446;50.752;4.352;2023-06-10T14:46:58;9.80;;;6.67;;
72439;SDS011;60446;50.752;4.352;2023-06-10T14:49:25;9.23;;;6.72;;
72439;SDS011;60446;50.752;4.352;2023-06-10T14:51:52;9.55;;;6.72;;
72439;SDS011;60446;50.752;4.352;2023-06-10T14:54:19;11.48;;;7.28;;
72439;SDS011;60446;50.752;4.352;2023-06-10T14:56:49;10.35;;;7.65;;
72439;SDS011;60446;50.752;4.352;2023-06-10T14:59:16;10.07;;;6.50;;
72439;SDS011;60446;50.752;4.352;2023-06-10T15:01:43;9.77;;;6.65;;
72439;SDS011;60446;50.752;4.352;2023-06-10T15:04:11;9.07;;;6.72;;
72439;SDS011;60446;50.752;4.352;2023-06-10T15:06:38;8.30;;;6.80;;